Time;durP1;ratioP1;P1;durP2;ratioP2;P2;SDS_P1;SDS_P2;PMS_P1;PMS_P2;Temp;Humidity;BMP_temperature;BMP_pressure;BME280_temperature;BME280_humidity;BME280_pressure;Samples;Min_cycle;Max_cycle;Signal;HPM_P1;HPM_P2
2021/03/07 00:00:55;;;;;;;9.80;8.70;;;1.60;99.90;;;;;;6171688;23;20446;-80
2021/03/07 00:03:23;;;;;;;9.87;7.43;;;1.60;99.90;;;;;;6135036;23;20425;-80
2021/03/07 00:05:51;;;;;;;8.67;6.87;;;1.50;99.90;;;;;;6134852;23;20405;-80
2021/03/07 00:08:19;;;;;;;9.33;6.43;;;1.50;99.90;;;;;;6134664;23;20442;-80
2021/03/07 00:10:46;;;;;;;7.63;6.00;;;1.50;99.90;;;;;;6170977;23;20426;-80
2021/03/07 00:13:13;;;;;;;7.90;6.27;;;1.50;99.90;;;;;;6134591;23;20444;-81
2021/03/07 00:15:41;;;;;;;7.87;6.30;;;1.40;99.90;;;;;;6170711;23;20457;-81
2021/03/07 00:18:08;;;;;;;6.87;6.17;;;1.40;99.90;;;;;;6158178;23;20781;-81
2021/03/07 00:20:36;;;;;;;6.50;4.93;;;1.40;99.90;;;;;;6133707;23;20959;-81
2021/03/07 00:23:04;;;;;;;8.53;6.30;;;1.40;99.90;;;;;;6170540;23;20947;-81
2021/03/07 00:25:31;;;;;;;9.40;7.33;;;1.40;99.90;;;;;;6134215;23;20413;-81
2021/03/07 00:27:58;;;;;;;7.53;6.50;;;1.40;99.90;;;;;;6133956;23;20503;-80
2021/03/07 00:30:26;;;;;;;8.33;6.00;;;1.30;99.90;;;;;;6158835;23;20420;-80
2021/03/07 00:32:53;;;;;;;7.10;5.70;;;1.30;99.90;;;;;;6170334;23;20732;-80
2021/03/07 00:35:21;;;;;;;8.80;6.80;;;1.30;99.90;;;;;;6170593;23;20397;-80
2021/03/07 00:37:49;;;;;;;8.10;6.30;;;1.30;99.90;;;;;;6158586;23;20499;-81
2021/03/07 00:40:16;;;;;;;8.30;6.57;;;1.30;99.90;;;;;;6159071;23;20431;-81
2021/03/07 00:42:44;;;;;;;8.63;7.30;;;1.30;99.90;;;;;;6159965;23;20426;-80
2021/03/07 00:45:14;;;;;;;9.30;8.03;;;1.30;99.90;;;;;;6160086;23;20888;-80
2021/03/07 00:47:42;;;;;;;9.00;7.70;;;1.30;99.90;;;;;;6159152;23;20445;-81
2021/03/07 00:50:11;;;;;;;8.40;7.00;;;1.30;99.90;;;;;;6134145;23;20416;-81
2021/03/07 00:52:38;;;;;;;10.70;7.50;;;1.30;99.90;;;;;;6158235;23;20443;-81
2021/03/07 00:55:07;;;;;;;10.50;8.50;;;1.30;99.90;;;;;;6159395;23;20459;-80
2021/03/07 00:57:35;;;;;;;11.13;6.67;;;1.30;99.90;;;;;;6170089;23;20802;-81
2021/03/07 01:00:08;;;;;;;7.63;6.00;;;1.30;99.90;;;;;;6158963;23;20456;-81
2021/03/07 01:02:35;;;;;;;10.20;7.07;;;1.40;99.90;;;;;;6158985;23;20421;-81
2021/03/07 01:05:19;;;;;;;7.80;7.00;;;1.40;99.90;;;;;;6134288;23;20405;-81
2021/03/07 01:07:47;;;;;;;8.37;6.03;;;1.40;99.90;;;;;;6158540;23;20448;-81
2021/03/07 01:10:17;;;;;;;6.60;6.00;;;1.40;99.90;;;;;;6158561;23;20456;-81
2021/03/07 01:12:47;;;;;;;7.83;7.03;;;1.50;99.90;;;;;;6158388;23;20485;-81
2021/03/07 01:15:16;;;;;;;8.50;6.17;;;1.50;99.90;;;;;;6134084;23;20414;-81
2021/03/07 01:17:44;;;;;;;7.57;5.20;;;1.50;99.90;;;;;;6159029;23;20498;-81
2021/03/07 01:20:14;;;;;;;6.23;5.63;;;1.50;99.90;;;;;;6158380;23;20795;-81
2021/03/07 01:22:52;;;;;;;6.47;5.00;;;1.50;99.90;;;;;;6134303;23;20408;-81
2021/03/07 01:25:22;;;;;;;5.70;4.87;;;1.50;99.90;;;;;;6134099;23;20985;-81
2021/03/07 01:27:50;;;;;;;6.70;4.73;;;1.50;99.90;;;;;;6134330;23;20444;-81
2021/03/07 01:30:19;;;;;;;7.50;5.97;;;1.50;99.90;;;;;;6134243;23;20409;-81
2021/03/07 01:32:46;;;;;;;5.80;5.10;;;1.50;99.90;;;;;;6158717;23;20414;-81
2021/03/07 01:35:15;;;;;;;6.03;4.63;;;1.50;99.90;;;;;;6134196;23;20489;-82
2021/03/07 01:37:43;;;;;;;7.17;4.90;;;1.50;99.90;;;;;;6134120;23;20937;-80
2021/03/07 01:40:13;;;;;;;5.63;5.03;;;1.50;99.90;;;;;;6134188;23;20425;-80
2021/03/07 01:42:44;;;;;;;6.17;4.60;;;1.50;99.90;;;;;;6159314;23;20744;-80
2021/03/07 01:45:13;;;;;;;6.80;6.00;;;1.50;99.90;;;;;;6135284;23;20471;-80
2021/03/07 01:47:46;;;;;;;8.68;5.55;;;1.50;99.90;;;;;;6169920;23;20437;-79
2021/03/07 01:50:15;;;;;;;7.07;4.87;;;1.60;99.90;;;;;;6138498;23;20211;-79
2021/03/07 01:52:42;;;;;;;8.47;5.50;;;1.60;99.90;;;;;;6158957;23;20480;-79
2021/03/07 01:55:10;;;;;;;6.23;5.17;;;1.60;99.90;;;;;;6134044;23;20424;-80
2021/03/07 01:57:38;;;;;;;6.70;5.15;;;1.60;99.90;;;;;;6157258;23;20483;-80
2021/03/07 02:00:10;;;;;;;7.70;4.80;;;1.70;99.90;;;;;;6158217;23;20262;-80
2021/03/07 02:02:40;;;;;;;5.80;5.20;;;1.70;99.90;;;;;;6158097;23;20470;-79
2021/03/07 02:05:10;;;;;;;8.10;5.80;;;1.70;99.90;;;;;;6133115;23;20413;-80
2021/03/07 02:07:37;;;;;;;6.13;5.50;;;1.70;99.90;;;;;;6158073;23;20437;-80
2021/03/07 02:10:06;;;;;;;5.50;5.00;;;1.70;99.90;;;;;;6133841;23;20421;-80
2021/03/07 02:12:47;;;;;;;6.00;5.40;;;1.70;99.90;;;;;;6133816;23;20807;-80
2021/03/07 02:15:17;;;;;;;7.83;6.27;;;1.60;99.90;;;;;;6133215;23;20424;-79
2021/03/07 02:17:46;;;;;;;5.37;4.87;;;1.60;99.90;;;;;;6158890;23;20444;-80
2021/03/07 02:20:16;;;;;;;7.70;5.30;;;1.60;99.90;;;;;;6169730;23;20392;-80
2021/03/07 02:22:50;;;;;;;6.93;5.97;;;1.60;99.90;;;;;;6158661;23;20420;-80
2021/03/07 02:25:18;;;;;;;6.27;5.67;;;1.60;99.90;;;;;;6158609;23;20470;-79
2021/03/07 02:27:47;;;;;;;7.00;5.20;;;1.60;99.90;;;;;;6134006;23;20441;-80
2021/03/07 02:30:15;;;;;;;6.50;5.90;;;1.60;99.90;;;;;;6158243;23;20429;-81
2021/03/07 02:32:47;;;;;;;6.40;4.90;;;1.60;99.90;;;;;;6133164;23;20465;-80
2021/03/07 02:35:20;;;;;;;7.27;5.30;;;1.60;99.90;;;;;;6170133;23;20441;-80
2021/03/07 02:37:50;;;;;;;6.43;5.70;;;1.60;99.90;;;;;;6136239;23;20438;-80
2021/03/07 02:40:23;;;;;;;6.27;5.60;;;1.60;99.90;;;;;;6172697;23;20427;-80
2021/03/07 02:43:10;;;;;;;6.20;5.57;;;1.60;99.90;;;;;;6137993;23;20492;-80
2021/03/07 02:45:38;;;;;;;7.40;5.80;;;1.60;99.90;;;;;;6136606;23;20428;-79
2021/03/07 02:48:09;;;;;;;6.07;5.47;;;1.60;99.90;;;;;;6160169;23;20524;-80
2021/03/07 02:50:38;;;;;;;6.37;5.77;;;1.60;99.90;;;;;;6135942;23;20494;-80
2021/03/07 02:53:10;;;;;;;8.13;5.80;;;1.60;99.90;;;;;;6160375;23;20421;-80
2021/03/07 02:55:41;;;;;;;5.87;5.27;;;1.60;99.90;;;;;;6172254;23;20383;-80
2021/03/07 02:58:10;;;;;;;7.57;5.40;;;1.70;99.90;;;;;;6135571;23;20440;-79
2021/03/07 03:00:40;;;;;;;6.97;6.30;;;1.60;99.90;;;;;;6159707;23;20412;-81
2021/03/07 03:03:10;;;;;;;6.97;6.30;;;1.60;99.90;;;;;;6159874;23;20426;-80
2021/03/07 03:05:38;;;;;;;7.90;6.10;;;1.60;99.90;;;;;;6171771;23;20404;-80
2021/03/07 03:08:07;;;;;;;6.83;6.10;;;1.70;99.90;;;;;;6159897;23;20484;-80
2021/03/07 03:10:36;;;;;;;7.30;6.30;;;1.70;99.90;;;;;;6135031;23;20962;-80
2021/03/07 03:13:05;;;;;;;7.87;7.07;;;1.70;99.90;;;;;;6159820;23;20456;-79
2021/03/07 03:15:33;;;;;;;9.77;6.60;;;1.70;99.90;;;;;;6135201;23;20471;-79
2021/03/07 03:18:01;;;;;;;7.10;6.40;;;1.70;99.90;;;;;;6135085;23;20444;-79
2021/03/07 03:20:29;;;;;;;8.43;6.50;;;1.70;99.90;;;;;;6159646;23;20416;-79
2021/03/07 03:22:58;;;;;;;8.60;6.50;;;1.70;99.90;;;;;;6160105;23;20428;-79
2021/03/07 03:25:25;;;;;;;9.07;6.03;;;1.70;99.90;;;;;;6159826;23;20421;-79
2021/03/07 03:27:56;;;;;;;7.00;6.30;;;1.70;99.90;;;;;;6135441;23;20528;-80
2021/03/07 03:30:25;;;;;;;7.87;7.07;;;1.70;99.90;;;;;;6135669;23;20433;-80
2021/03/07 03:32:53;;;;;;;9.50;7.00;;;1.70;99.90;;;;;;6135336;23;20430;-80
2021/03/07 03:35:21;;;;;;;6.60;5.90;;;1.70;99.90;;;;;;6135530;23;20421;-80
2021/03/07 03:37:50;;;;;;;9.13;7.10;;;1.70;99.90;;;;;;6143831;23;20470;-79
2021/03/07 03:40:20;;;;;;;7.50;6.80;;;1.70;99.90;;;;;;6145795;23;20407;-79
2021/03/07 03:42:53;;;;;;;7.97;6.20;;;1.70;99.90;;;;;;6145231;23;20416;-79
2021/03/07 03:45:26;;;;;;;10.17;5.70;;;1.70;99.90;;;;;;6135989;23;20410;-79
2021/03/07 03:47:57;;;;;;;6.80;6.13;;;1.70;99.90;;;;;;6135062;23;20440;-80
2021/03/07 03:50:27;;;;;;;6.40;5.80;;;1.70;99.90;;;;;;6171235;23;20416;-80
2021/03/07 03:52:55;;;;;;;7.27;5.67;;;1.80;99.90;;;;;;6135447;23;20447;-80
2021/03/07 03:55:24;;;;;;;6.83;5.37;;;1.80;99.90;;;;;;6134940;23;20420;-80
2021/03/07 03:57:56;;;;;;;5.57;5.07;;;1.80;99.90;;;;;;6134915;23;20444;-80
2021/03/07 04:00:26;;;;;;;7.13;6.20;;;1.80;99.90;;;;;;6159556;23;20406;-80
2021/03/07 04:02:57;;;;;;;5.87;5.37;;;1.80;99.90;;;;;;6170739;23;20386;-80
2021/03/07 04:05:27;;;;;;;6.00;5.40;;;1.80;99.90;;;;;;6159706;23;20411;-80
2021/03/07 04:07:55;;;;;;;7.70;5.27;;;1.80;99.90;;;;;;6159255;23;20512;-80
2021/03/07 04:10:24;;;;;;;6.03;4.90;;;1.80;99.90;;;;;;6158963;23;20425;-80
2021/03/07 04:12:54;;;;;;;6.00;5.50;;;1.80;99.90;;;;;;6134151;23;20428;-80
2021/03/07 04:15:21;;;;;;;6.63;5.03;;;1.80;99.90;;;;;;6134541;23;20794;-80
2021/03/07 04:17:51;;;;;;;6.03;5.20;;;1.90;99.90;;;;;;6170299;23;20425;-80
2021/03/07 04:20:19;;;;;;;5.23;4.73;;;2.00;99.90;;;;;;6134589;23;20423;-80
2021/03/07 04:22:49;;;;;;;7.13;5.33;;;1.90;99.90;;;;;;6134744;23;20431;-80
2021/03/07 04:25:16;;;;;;;5.73;5.10;;;1.90;99.90;;;;;;6159204;23;20423;-80
2021/03/07 04:27:44;;;;;;;8.00;5.60;;;1.90;99.90;;;;;;6134864;23;20941;-80
2021/03/07 04:30:13;;;;;;;5.80;4.60;;;1.90;99.90;;;;;;6159441;23;20503;-80
2021/03/07 04:32:40;;;;;;;6.40;5.27;;;1.90;99.90;;;;;;6134467;23;20413;-80
2021/03/07 04:35:10;;;;;;;5.13;4.63;;;1.90;99.90;;;;;;6171088;23;20434;-81
2021/03/07 04:37:38;;;;;;;6.63;5.03;;;1.90;99.90;;;;;;6159057;23;20513;-82
2021/03/07 04:40:07;;;;;;;4.73;4.27;;;1.90;99.90;;;;;;6134926;23;20425;-80
2021/03/07 04:42:35;;;;;;;6.13;4.67;;;2.00;99.90;;;;;;6158921;23;20416;-80
2021/03/07 04:45:03;;;;;;;6.17;4.83;;;2.00;99.90;;;;;;6158781;23;20450;-80
2021/03/07 04:47:31;;;;;;;5.97;5.47;;;2.00;99.90;;;;;;6169951;23;20416;-80
2021/03/07 04:50:03;;;;;;;5.40;4.90;;;2.00;99.90;;;;;;6134476;23;20447;-80
2021/03/07 04:52:33;;;;;;;5.43;5.00;;;2.00;99.90;;;;;;6133834;23;20473;-80
2021/03/07 04:55:00;;;;;;;10.00;6.00;;;2.00;99.90;;;;;;6134192;23;20457;-80
2021/03/07 04:57:43;;;;;;;4.97;4.50;;;2.00;99.90;;;;;;6159160;23;20773;-80
2021/03/07 05:00:14;;;;;;;5.70;5.03;;;2.00;99.90;;;;;;6158617;23;20412;-81
2021/03/07 05:02:42;;;;;;;5.27;4.87;;;2.00;99.90;;;;;;6160585;23;20420;-80
2021/03/07 05:05:10;;;;;;;4.83;4.30;;;2.00;99.90;;;;;;6170533;23;20428;-80
2021/03/07 05:07:39;;;;;;;4.87;4.43;;;2.00;99.90;;;;;;6170156;23;20428;-80
2021/03/07 05:10:09;;;;;;;6.00;5.50;;;2.00;99.90;;;;;;6133784;23;20437;-80
2021/03/07 05:12:36;;;;;;;5.57;4.83;;;2.10;99.90;;;;;;6134306;23;20432;-80
2021/03/07 05:15:06;;;;;;;5.10;4.30;;;2.10;99.90;;;;;;6134012;23;20422;-80
2021/03/07 05:17:34;;;;;;;5.00;4.60;;;2.10;99.90;;;;;;6170932;23;20445;-80
2021/03/07 05:20:02;;;;;;;8.07;4.90;;;2.10;99.90;;;;;;6133898;23;20907;-80
2021/03/07 05:22:29;;;;;;;4.53;3.97;;;2.10;99.90;;;;;;6158325;23;20421;-80
2021/03/07 05:24:57;;;;;;;4.80;4.30;;;2.10;99.90;;;;;;6134044;23;20494;-79
2021/03/07 05:27:24;;;;;;;5.70;4.77;;;2.10;99.90;;;;;;6133293;23;20835;-80
2021/03/07 05:29:52;;;;;;;6.10;4.47;;;2.10;99.90;;;;;;6133813;23;20436;-80
2021/03/07 05:32:19;;;;;;;5.57;4.33;;;2.20;99.90;;;;;;6133854;23;20417;-80
2021/03/07 05:34:46;;;;;;;6.00;5.10;;;2.10;99.90;;;;;;6170466;23;20431;-80
2021/03/07 05:37:13;;;;;;;5.10;4.40;;;2.10;99.90;;;;;;6134198;23;20423;-80
2021/03/07 05:39:41;;;;;;;4.90;4.40;;;2.10;99.90;;;;;;6134093;23;20884;-80
2021/03/07 05:42:10;;;;;;;6.83;4.77;;;2.10;99.90;;;;;;6134258;23;20430;-80
2021/03/07 05:44:37;;;;;;;7.83;4.93;;;2.10;99.90;;;;;;6158718;23;20767;-80
2021/03/07 05:47:04;;;;;;;4.27;3.97;;;2.10;99.90;;;;;;6133905;23;20451;-80
2021/03/07 05:49:33;;;;;;;5.00;4.50;;;2.10;99.90;;;;;;6159107;23;20495;-80
2021/03/07 05:52:00;;;;;;;5.20;4.20;;;2.20;99.90;;;;;;6134302;23;20508;-80
2021/03/07 05:54:28;;;;;;;4.33;3.93;;;2.20;99.90;;;;;;6170209;23;20468;-80
2021/03/07 05:56:56;;;;;;;3.67;3.33;;;2.20;99.90;;;;;;6134983;23;20419;-80
2021/03/07 05:59:25;;;;;;;5.27;4.87;;;2.20;99.90;;;;;;6134154;23;20442;-80
2021/03/07 06:01:52;;;;;;;4.43;4.03;;;2.20;99.90;;;;;;6134490;23;20412;-80
2021/03/07 06:04:20;;;;;;;4.50;4.10;;;2.20;99.90;;;;;;6134295;23;20951;-80
2021/03/07 06:06:47;;;;;;;8.40;5.30;;;2.20;99.90;;;;;;6158784;23;20417;-80
2021/03/07 06:09:21;;;;;;;6.20;5.20;;;2.20;99.90;;;;;;6159116;23;20440;-80
2021/03/07 06:11:50;;;;;;;4.30;3.90;;;2.20;99.90;;;;;;6168224;23;20400;-80
2021/03/07 06:14:26;;;;;;;6.60;5.10;;;2.20;99.90;;;;;;6170314;23;20501;-80
2021/03/07 06:17:06;;;;;;;5.17;4.67;;;2.30;99.90;;;;;;6134165;23;20868;-79
2021/03/07 06:19:56;;;;;;;7.83;5.33;;;2.30;99.90;;;;;;6134175;23;20413;-80
2021/03/07 06:22:24;;;;;;;5.20;4.40;;;2.30;99.90;;;;;;6158879;23;20420;-80
2021/03/07 06:24:52;;;;;;;5.57;5.00;;;2.30;99.90;;;;;;6158903;23;20465;-80
2021/03/07 06:27:20;;;;;;;5.87;4.97;;;2.30;99.90;;;;;;6159314;23;20420;-80
2021/03/07 06:30:08;;;;;;;7.60;5.10;;;2.30;99.90;;;;;;6133639;23;20748;-80
2021/03/07 06:32:36;;;;;;;5.73;5.13;;;2.30;99.90;;;;;;6134596;23;20419;-80
2021/03/07 06:35:05;;;;;;;6.53;5.70;;;2.30;99.90;;;;;;6159298;23;20420;-81
2021/03/07 06:37:32;;;;;;;6.63;6.03;;;2.30;99.90;;;;;;6135630;23;20437;-80
2021/03/07 06:40:22;;;;;;;6.27;5.30;;;2.40;99.90;;;;;;6136651;23;20810;-80
2021/03/07 06:42:49;;;;;;;7.30;5.50;;;2.40;99.90;;;;;;6137893;23;20421;-80
2021/03/07 06:45:18;;;;;;;6.23;5.50;;;2.40;99.90;;;;;;6137288;23;20416;-80
2021/03/07 06:47:55;;;;;;;8.07;5.80;;;2.40;99.90;;;;;;6137367;23;21034;-80
2021/03/07 06:50:22;;;;;;;6.70;5.53;;;2.40;99.90;;;;;;6136293;23;20458;-80
2021/03/07 06:52:54;;;;;;;6.50;5.60;;;2.40;99.90;;;;;;6134053;23;20448;-80
2021/03/07 06:55:24;;;;;;;5.77;4.90;;;2.40;99.90;;;;;;6133937;23;20456;-80
2021/03/07 06:57:52;;;;;;;5.00;4.60;;;2.40;99.90;;;;;;6158745;23;20813;-80
2021/03/07 07:00:36;;;;;;;4.50;4.07;;;2.40;99.90;;;;;;6158126;23;20507;-80
2021/03/07 07:03:09;;;;;;;7.10;4.53;;;2.50;99.90;;;;;;6133649;23;20408;-80
2021/03/07 07:05:40;;;;;;;6.00;4.53;;;2.50;99.90;;;;;;6133622;23;20449;-80
2021/03/07 07:08:11;;;;;;;5.10;4.60;;;2.50;99.90;;;;;;6134456;23;20499;-81
2021/03/07 07:10:59;;;;;;;5.90;4.73;;;2.50;99.90;;;;;;6134667;23;20518;-80
2021/03/07 07:13:28;;;;;;;6.50;4.90;;;2.50;99.90;;;;;;6159100;23;20440;-80
2021/03/07 07:16:03;;;;;;;4.80;4.40;;;2.50;99.90;;;;;;6134430;23;20421;-80
2021/03/07 07:18:32;;;;;;;4.33;4.00;;;2.50;99.90;;;;;;6159134;23;20816;-81
2021/03/07 07:21:02;;;;;;;5.27;4.80;;;2.50;99.90;;;;;;6134292;23;20800;-81
2021/03/07 07:23:35;;;;;;;6.43;4.30;;;2.60;99.90;;;;;;6137022;23;20416;-80
2021/03/07 07:26:20;;;;;;;5.57;5.03;;;2.60;99.90;;;;;;6138243;23;20793;-81
2021/03/07 07:28:56;;;;;;;5.73;4.40;;;2.60;99.90;;;;;;6137132;23;20648;-81
2021/03/07 07:31:35;;;;;;;7.47;4.80;;;2.60;99.90;;;;;;6136945;23;20747;-81
2021/03/07 07:34:09;;;;;;;4.90;4.50;;;2.60;99.90;;;;;;6161997;23;20837;-81
2021/03/07 07:36:45;;;;;;;5.10;4.60;;;2.60;99.90;;;;;;6163047;23;20463;-81
2021/03/07 07:39:17;;;;;;;5.57;5.07;;;2.70;99.90;;;;;;6141030;23;20436;-81
2021/03/07 07:41:45;;;;;;;6.37;5.77;;;2.70;99.90;;;;;;6141224;23;20407;-83
2021/03/07 07:44:13;;;;;;;6.80;6.07;;;2.70;99.90;;;;;;6162959;23;20416;-83
2021/03/07 07:46:58;;;;;;;5.93;5.20;;;2.70;99.90;;;;;;6161887;23;20729;-83
2021/03/07 07:49:37;;;;;;;6.20;5.60;;;2.70;99.90;;;;;;6137640;23;20453;-83
2021/03/07 07:52:34;;;;;;;6.80;5.40;;;2.70;99.90;;;;;;6161576;23;20515;-83
2021/03/07 07:55:04;;;;;;;5.10;4.70;;;2.70;99.90;;;;;;6162217;23;20412;-83
2021/03/07 07:57:50;;;;;;;5.70;5.20;;;2.80;99.90;;;;;;6136802;23;20439;-83
2021/03/07 08:00:21;;;;;;;6.80;6.20;;;2.80;99.90;;;;;;6136740;23;20412;-83
2021/03/07 08:02:55;;;;;;;6.33;5.73;;;2.80;99.90;;;;;;6160926;23;20409;-83
2021/03/07 08:05:43;;;;;;;6.30;5.70;;;2.80;99.90;;;;;;6136466;23;20429;-83
2021/03/07 08:08:13;;;;;;;6.23;5.67;;;2.90;99.90;;;;;;6136746;23;20447;-83
2021/03/07 08:10:46;;;;;;;5.30;4.80;;;2.90;99.90;;;;;;6160943;23;20436;-83
2021/03/07 08:13:15;;;;;;;5.83;5.00;;;2.90;99.90;;;;;;6172984;23;20408;-83
2021/03/07 08:15:50;;;;;;;5.87;5.37;;;2.90;99.90;;;;;;6136684;23;20424;-83
2021/03/07 08:18:20;;;;;;;7.63;5.37;;;2.90;99.90;;;;;;6161562;23;20441;-82
2021/03/07 08:20:58;;;;;;;4.73;4.33;;;2.90;99.90;;;;;;6136301;23;20885;-82
2021/03/07 08:23:25;;;;;;;7.63;5.70;;;3.00;99.90;;;;;;6161507;23;20474;-83
2021/03/07 08:26:00;;;;;;;5.50;5.00;;;3.00;99.90;;;;;;6161463;23;20416;-83
2021/03/07 08:28:44;;;;;;;8.40;6.23;;;3.00;99.90;;;;;;6136901;23;20436;-82
2021/03/07 08:31:34;;;;;;;6.07;5.47;;;3.00;99.90;;;;;;6136634;23;20415;-82
2021/03/07 08:34:25;;;;;;;7.03;5.20;;;3.00;99.90;;;;;;6172046;23;20388;-82
2021/03/07 08:37:01;;;;;;;5.50;5.00;;;3.10;99.90;;;;;;6136979;23;20458;-82
2021/03/07 08:39:29;;;;;;;6.47;5.77;;;3.10;99.90;;;;;;6172307;23;20380;-82
2021/03/07 08:42:02;;;;;;;6.43;5.10;;;3.10;99.90;;;;;;6161569;23;20871;-82
2021/03/07 08:44:30;;;;;;;7.00;5.73;;;3.10;99.90;;;;;;6160954;23;20415;-82
2021/03/07 08:46:57;;;;;;;6.30;5.63;;;3.20;99.90;;;;;;6161378;23;20480;-83
2021/03/07 08:49:32;;;;;;;4.93;4.53;;;3.20;99.90;;;;;;6136523;23;20782;-83
2021/03/07 08:52:02;;;;;;;6.53;5.73;;;3.20;99.90;;;;;;6135945;23;20421;-83
2021/03/07 08:54:31;;;;;;;16.40;7.30;;;3.20;99.90;;;;;;6136436;23;20421;-83
2021/03/07 08:57:06;;;;;;;6.47;5.30;;;3.20;99.90;;;;;;6136663;23;20424;-82
2021/03/07 08:59:34;;;;;;;6.60;5.87;;;3.30;99.90;;;;;;6136857;23;20419;-82
2021/03/07 09:02:04;;;;;;;6.73;6.03;;;3.30;99.90;;;;;;6136811;23;20423;-82
2021/03/07 09:04:40;;;;;;;7.17;6.43;;;3.30;99.90;;;;;;6135684;23;20887;-82
2021/03/07 09:07:08;;;;;;;6.77;6.17;;;3.30;99.90;;;;;;6161660;23;20409;-82
2021/03/07 09:09:41;;;;;;;6.80;6.10;;;3.30;99.90;;;;;;6136948;23;20434;-82
2021/03/07 09:12:09;;;;;;;6.80;6.10;;;3.40;99.90;;;;;;6172549;23;20396;-82
2021/03/07 09:14:38;;;;;;;6.97;6.30;;;3.40;99.90;;;;;;6161770;23;20420;-82
2021/03/07 09:17:08;;;;;;;8.47;7.60;;;3.40;99.90;;;;;;6135888;23;20422;-83
2021/03/07 09:19:37;;;;;;;8.57;6.40;;;3.40;99.90;;;;;;6160899;23;20454;-83
2021/03/07 09:22:17;;;;;;;9.30;7.43;;;3.40;99.90;;;;;;6161272;23;20417;-83
2021/03/07 09:24:51;;;;;;;8.33;6.67;;;3.60;99.90;;;;;;6136931;23;20788;-82
2021/03/07 09:27:19;;;;;;;6.90;6.30;;;3.60;99.90;;;;;;6172315;23;20377;-82
2021/03/07 09:30:11;;;;;;;7.73;5.80;;;3.60;99.90;;;;;;6136111;23;20471;-82
2021/03/07 09:32:40;;;;;;;7.40;6.10;;;3.60;99.90;;;;;;6161201;23;20404;-82
2021/03/07 09:35:23;;;;;;;8.90;6.90;;;3.60;99.90;;;;;;6172388;23;20396;-82
2021/03/07 09:37:57;;;;;;;7.97;7.17;;;3.70;99.90;;;;;;6160364;23;20464;-82
2021/03/07 09:40:27;;;;;;;7.63;7.00;;;3.70;99.90;;;;;;6136933;23;20459;-82
2021/03/07 09:42:57;;;;;;;8.30;7.60;;;3.80;99.90;;;;;;6162669;23;20409;-82
2021/03/07 09:45:25;;;;;;;8.63;7.40;;;3.80;99.90;;;;;;6171978;23;20432;-82
2021/03/07 09:48:06;;;;;;;7.97;7.17;;;3.80;99.90;;;;;;6173756;23;20422;-82
2021/03/07 09:50:34;;;;;;;7.93;7.13;;;3.90;99.90;;;;;;6144197;23;20433;-82
2021/03/07 09:53:04;;;;;;;9.40;8.40;;;3.90;99.90;;;;;;6144865;23;20443;-82
2021/03/07 09:55:33;;;;;;;9.07;8.17;;;4.00;99.90;;;;;;6175380;23;20389;-82
2021/03/07 09:58:02;;;;;;;8.50;7.67;;;4.00;99.90;;;;;;6159650;23;20440;-82
2021/03/07 10:00:31;;;;;;;9.37;8.20;;;4.00;99.90;;;;;;6160533;23;20804;-82
2021/03/07 10:02:58;;;;;;;9.03;8.13;;;4.10;99.90;;;;;;6160093;23;20413;-82
2021/03/07 10:05:26;;;;;;;8.35;7.55;;;4.10;99.90;;;;;;6134393;23;20425;-82
2021/03/07 10:07:56;;;;;;;7.90;7.20;;;4.20;99.90;;;;;;6160127;23;20193;-82
2021/03/07 10:10:25;;;;;;;8.80;7.97;;;4.30;99.90;;;;;;6160398;23;20432;-83
2021/03/07 10:12:54;;;;;;;9.60;7.90;;;4.40;99.90;;;;;;6159849;23;20428;-83
2021/03/07 10:15:27;;;;;;;8.97;8.07;;;4.40;99.90;;;;;;6134734;23;20420;-81
2021/03/07 10:17:57;;;;;;;10.00;7.63;;;4.60;99.90;;;;;;6160006;23;20432;-81
2021/03/07 10:20:32;;;;;;;8.93;8.13;;;4.60;99.90;;;;;;6161310;23;20884;-81
2021/03/07 10:23:00;;;;;;;8.30;7.60;;;4.80;99.90;;;;;;6136372;23;20404;-82
2021/03/07 10:25:30;;;;;;;8.87;7.93;;;4.80;99.90;;;;;;6160736;23;20421;-82
2021/03/07 10:28:00;;;;;;;9.97;8.97;;;4.90;99.90;;;;;;6159190;23;20448;-81
2021/03/07 10:30:38;;;;;;;10.03;9.03;;;4.90;99.90;;;;;;6135609;23;20472;-81
2021/03/07 10:33:17;;;;;;;10.10;8.80;;;5.00;99.90;;;;;;6171742;23;20408;-81
2021/03/07 10:36:02;;;;;;;9.80;8.90;;;5.10;99.90;;;;;;6160989;23;20412;-81
2021/03/07 10:38:31;;;;;;;10.63;9.53;;;5.20;99.90;;;;;;6136016;23;20534;-82
2021/03/07 10:40:59;;;;;;;10.10;9.10;;;5.30;99.90;;;;;;6160213;23;20409;-82
2021/03/07 10:43:27;;;;;;;11.90;9.60;;;5.30;99.90;;;;;;6135093;23;20449;-82
2021/03/07 10:45:54;;;;;;;10.90;9.10;;;5.40;99.90;;;;;;6136205;23;20800;-82
2021/03/07 10:48:21;;;;;;;10.37;9.37;;;5.40;99.90;;;;;;6162502;23;20456;-82
2021/03/07 10:50:51;;;;;;;10.60;9.50;;;5.50;99.90;;;;;;6173565;23;20515;-82
2021/03/07 10:53:19;;;;;;;11.37;10.23;;;5.60;99.90;;;;;;6136887;23;20417;-82
2021/03/07 10:55:51;;;;;;;10.23;9.23;;;5.60;99.90;;;;;;6135486;23;20451;-82
2021/03/07 10:58:20;;;;;;;10.50;9.40;;;5.70;99.90;;;;;;6136940;23;20432;-82
2021/03/07 11:00:47;;;;;;;12.23;10.47;;;5.70;99.90;;;;;;6162303;23;20426;-82
2021/03/07 11:03:15;;;;;;;10.70;8.43;;;5.80;99.90;;;;;;6137139;23;20674;-82
2021/03/07 11:05:43;;;;;;;10.10;8.80;;;5.80;99.90;;;;;;6138182;23;20495;-82
2021/03/07 11:08:10;;;;;;;10.00;9.10;;;5.90;99.90;;;;;;6137756;23;20499;-82
2021/03/07 11:10:37;;;;;;;9.80;8.60;;;5.90;99.90;;;;;;6138373;23;20442;-82
2021/03/07 11:13:05;;;;;;;11.40;10.27;;;6.00;99.90;;;;;;6136295;23;20942;-82
2021/03/07 11:15:33;;;;;;;9.30;8.40;;;6.00;99.90;;;;;;6136411;23;20481;-82
2021/03/07 11:18:00;;;;;;;11.23;8.33;;;6.10;99.90;;;;;;6136053;23;20766;-81
2021/03/07 11:20:28;;;;;;;10.47;9.40;;;6.20;99.90;;;;;;6137474;23;20417;-81
2021/03/07 11:22:55;;;;;;;12.13;9.13;;;6.20;99.90;;;;;;6136350;23;20756;-81
2021/03/07 11:25:22;;;;;;;9.60;8.70;;;6.30;99.90;;;;;;6136028;23;20436;-81
2021/03/07 11:27:50;;;;;;;10.33;9.10;;;6.30;99.90;;;;;;6137315;23;20440;-81
2021/03/07 11:30:18;;;;;;;10.07;9.07;;;6.30;99.90;;;;;;6137197;23;20832;-81
2021/03/07 11:32:46;;;;;;;10.47;8.97;;;6.40;99.90;;;;;;6139445;23;20432;-81
2021/03/07 11:35:14;;;;;;;12.70;9.37;;;6.40;99.90;;;;;;6174264;23;20475;-82
2021/03/07 11:37:41;;;;;;;10.63;9.00;;;6.40;99.90;;;;;;6161497;23;20491;-82
2021/03/07 11:40:09;;;;;;;10.53;9.53;;;6.40;99.90;;;;;;6138087;23;20549;-81
2021/03/07 11:42:37;;;;;;;12.77;9.77;;;6.40;99.90;;;;;;6137399;23;20420;-82
2021/03/07 11:45:06;;;;;;;10.77;9.67;;;6.40;99.90;;;;;;6136969;23;20427;-82
2021/03/07 11:47:33;;;;;;;13.03;10.33;;;6.40;99.90;;;;;;6161148;23;20440;-82
2021/03/07 11:50:03;;;;;;;11.37;9.27;;;6.40;99.90;;;;;;6136985;23;20795;-82
2021/03/07 11:52:30;;;;;;;11.10;10.00;;;6.40;99.90;;;;;;6161182;23;20416;-82
2021/03/07 11:54:58;;;;;;;12.03;9.70;;;6.30;99.90;;;;;;6136028;23;20413;-82
2021/03/07 11:57:25;;;;;;;10.40;9.50;;;6.40;99.90;;;;;;6161263;23;20436;-82
2021/03/07 11:59:53;;;;;;;14.07;10.23;;;6.30;99.90;;;;;;6172464;23;20399;-82
2021/03/07 12:02:20;;;;;;;11.10;10.00;;;6.30;99.90;;;;;;6138002;23;20415;-82
2021/03/07 12:04:47;;;;;;;11.80;9.50;;;6.30;99.90;;;;;;6137233;23;20421;-82
2021/03/07 12:07:16;;;;;;;11.00;9.90;;;6.30;99.90;;;;;;6162408;23;20418;-82
2021/03/07 12:09:43;;;;;;;10.90;9.80;;;6.30;99.90;;;;;;6163287;23;20449;-82
2021/03/07 12:12:11;;;;;;;10.73;9.57;;;6.30;99.90;;;;;;6162506;23;20467;-82
2021/03/07 12:14:39;;;;;;;14.73;11.20;;;6.20;99.90;;;;;;6139008;23;20466;-82
2021/03/07 12:17:06;;;;;;;15.97;10.33;;;6.20;99.90;;;;;;6173214;23;20789;-82
2021/03/07 12:19:34;;;;;;;11.30;10.20;;;6.20;99.90;;;;;;6162769;23;20983;-81
2021/03/07 12:22:01;;;;;;;13.10;10.67;;;6.20;99.90;;;;;;6137126;23;20421;-81
2021/03/07 12:24:29;;;;;;;11.27;10.10;;;6.10;99.90;;;;;;6137698;23;20409;-81
2021/03/07 12:27:04;;;;;;;12.90;11.70;;;6.10;99.90;;;;;;6138823;23;20530;-81
2021/03/07 12:29:33;;;;;;;11.70;10.37;;;6.10;99.90;;;;;;6163268;23;20775;-81
2021/03/07 12:32:00;;;;;;;13.73;12.43;;;6.10;99.90;;;;;;6137285;23;20423;-81
2021/03/07 12:34:28;;;;;;;10.87;9.77;;;6.10;99.90;;;;;;6173700;23;20402;-82
2021/03/07 12:36:56;;;;;;;12.30;11.10;;;6.10;99.90;;;;;;6138010;23;20427;-81
2021/03/07 12:39:23;;;;;;;13.27;10.67;;;6.00;99.90;;;;;;6137149;23;20524;-81
2021/03/07 12:41:51;;;;;;;11.17;10.17;;;6.10;99.90;;;;;;6138509;23;20483;-82
2021/03/07 12:44:22;;;;;;;12.45;11.10;;;6.10;99.90;;;;;;6138255;23;20427;-83
2021/03/07 12:46:50;;;;;;;11.60;10.40;;;6.10;99.90;;;;;;6139475;23;20161;-83
2021/03/07 12:49:19;;;;;;;12.13;10.90;;;6.10;99.90;;;;;;6173324;23;20505;-82
2021/03/07 12:51:47;;;;;;;12.13;10.90;;;6.10;99.90;;;;;;6164247;23;20421;-82
2021/03/07 12:54:16;;;;;;;13.97;10.37;;;6.10;99.90;;;;;;6138522;23;20830;-82
2021/03/07 12:56:43;;;;;;;12.07;10.73;;;6.00;99.90;;;;;;6163604;23;20415;-82
2021/03/07 12:59:12;;;;;;;14.73;11.50;;;6.00;99.90;;;;;;6139424;23;20440;-82
2021/03/07 13:01:39;;;;;;;13.93;12.20;;;6.00;99.90;;;;;;6138869;23;20432;-82
2021/03/07 13:04:07;;;;;;;16.67;12.43;;;6.10;99.90;;;;;;6164726;23;20455;-82
2021/03/07 13:06:34;;;;;;;12.47;11.17;;;6.10;99.90;;;;;;6182281;23;20394;-81
2021/03/07 13:09:01;;;;;;;13.70;12.30;;;6.00;99.90;;;;;;6137589;23;20499;-82